sensor_id;sensor_type;location;lat;lon;timestamp;P1;durP1;ratioP1;P2;durP2;ratioP2
33403;SDS011;19751;40.274;18.268;2022-08-19T00:01:23;5.18;;;4.38;;
33403;SDS011;19751;40.274;18.268;2022-08-19T00:03:50;4.55;;;3.65;;
33403;SDS011;19751;40.274;18.268;2022-08-19T00:06:16;5.70;;;3.95;;
33403;SDS011;19751;40.274;18.268;2022-08-19T00:08:41;4.57;;;3.70;;
33403;SDS011;19751;40.274;18.268;2022-08-19T00:11:07;3.90;;;3.45;;
33403;SDS011;19751;40.274;18.268;2022-08-19T00:13:33;5.68;;;3.58;;
33403;SDS011;19751;40.274;18.268;2022-08-19T00:15:59;4.63;;;3.65;;
33403;SDS011;19751;40.274;18.268;2022-08-19T00:18:25;5.05;;;3.58;;
33403;SDS011;19751;40.274;18.268;2022-08-19T00:20:51;5.15;;;3.50;;
33403;SDS011;19751;40.274;18.268;2022-08-19T00:23:17;4.70;;;3.67;;
33403;SDS011;19751;40.274;18.268;2022-08-19T00:25:42;7.43;;;3.97;;
33403;SDS011;19751;40.274;18.268;2022-08-19T00:28:08;5.15;;;3.67;;
33403;SDS011;19751;40.274;18.268;2022-08-19T00:30:33;4.72;;;3.72;;
33403;SDS011;19751;40.274;18.268;2022-08-19T00:32:59;4.65;;;3.53;;
33403;SDS011;19751;40.274;18.268;2022-08-19T00:35:24;4.80;;;3.60;;
33403;SDS011;19751;40.274;18.268;2022-08-19T00:37:52;5.50;;;3.58;;
33403;SDS011;19751;40.274;18.268;2022-08-19T00:40:18;5.57;;;3.58;;
33403;SDS011;19751;40.274;18.268;2022-08-19T00:42:45;7.75;;;3.65;;
33403;SDS011;19751;40.274;18.268;2022-08-19T00:45:12;6.18;;;4.10;;
33403;SDS011;19751;40.274;18.268;2022-08-19T00:47:42;5.40;;;3.38;;
33403;SDS011;19751;40.274;18.268;2022-08-19T00:50:09;5.82;;;4.03;;
33403;SDS011;19751;40.274;18.268;2022-08-19T00:52:36;4.03;;;3.05;;
33403;SDS011;19751;40.274;18.268;2022-08-19T00:55:13;3.70;;;3.10;;
33403;SDS011;19751;40.274;18.268;2022-08-19T00:57:44;3.22;;;2.92;;
33403;SDS011;19751;40.274;18.268;2022-08-19T01:00:14;4.05;;;2.97;;
33403;SDS011;19751;40.274;18.268;2022-08-19T01:02:42;3.80;;;2.88;;
33403;SDS011;19751;40.274;18.268;2022-08-19T01:05:08;6.05;;;3.20;;
33403;SDS011;19751;40.274;18.268;2022-08-19T01:07:38;8.32;;;3.00;;
33403;SDS011;19751;40.274;18.268;2022-08-19T01:10:07;6.60;;;3.90;;
33403;SDS011;19751;40.274;18.268;2022-08-19T01:12:35;5.10;;;3.60;;
33403;SDS011;19751;40.274;18.268;2022-08-19T01:15:01;6.68;;;4.40;;
33403;SDS011;19751;40.274;18.268;2022-08-19T01:17:28;5.85;;;4.15;;
33403;SDS011;19751;40.274;18.268;2022-08-19T01:19:53;5.18;;;3.50;;
33403;SDS011;19751;40.274;18.268;2022-08-19T01:22:25;9.00;;;4.25;;
33403;SDS011;19751;40.274;18.268;2022-08-19T01:24:55;9.27;;;3.67;;
33403;SDS011;19751;40.274;18.268;2022-08-19T01:27:21;8.63;;;3.72;;
33403;SDS011;19751;40.274;18.268;2022-08-19T01:29:47;6.50;;;3.80;;
33403;SDS011;19751;40.274;18.268;2022-08-19T01:32:15;7.18;;;3.40;;
33403;SDS011;19751;40.274;18.268;2022-08-19T01:34:42;9.48;;;4.03;;
33403;SDS011;19751;40.274;18.268;2022-08-19T01:37:12;5.97;;;3.58;;
33403;SDS011;19751;40.274;18.268;2022-08-19T01:39:39;6.43;;;3.75;;
33403;SDS011;19751;40.274;18.268;2022-08-19T01:42:06;4.13;;;3.33;;
33403;SDS011;19751;40.274;18.268;2022-08-19T01:44:36;7.22;;;4.32;;
33403;SDS011;19751;40.274;18.268;2022-08-19T01:47:02;6.10;;;4.20;;
33403;SDS011;19751;40.274;18.268;2022-08-19T01:49:29;8.75;;;4.05;;
33403;SDS011;19751;40.274;18.268;2022-08-19T01:51:54;7.90;;;3.85;;
33403;SDS011;19751;40.274;18.268;2022-08-19T01:54:21;7.20;;;3.80;;
33403;SDS011;19751;40.274;18.268;2022-08-19T01:56:48;4.25;;;3.67;;
33403;SDS011;19751;40.274;18.268;2022-08-19T01:59:16;4.57;;;4.15;;
33403;SDS011;19751;40.274;18.268;2022-08-19T02:01:45;8.88;;;3.80;;
33403;SDS011;19751;40.274;18.268;2022-08-19T02:04:10;5.68;;;4.10;;
33403;SDS011;19751;40.274;18.268;2022-08-19T02:06:36;6.50;;;3.70;;
33403;SDS011;19751;40.274;18.268;2022-08-19T02:09:02;6.22;;;3.85;;
33403;SDS011;19751;40.274;18.268;2022-08-19T02:11:33;8.77;;;4.20;;
33403;SDS011;19751;40.274;18.268;2022-08-19T02:14:02;10.77;;;4.70;;
33403;SDS011;19751;40.274;18.268;2022-08-19T02:16:31;6.20;;;3.58;;
33403;SDS011;19751;40.274;18.268;2022-08-19T02:18:57;7.88;;;4.22;;
33403;SDS011;19751;40.274;18.268;2022-08-19T02:21:25;8.32;;;4.78;;
33403;SDS011;19751;40.274;18.268;2022-08-19T02:23:52;7.80;;;4.00;;
33403;SDS011;19751;40.274;18.268;2022-08-19T02:26:17;6.50;;;3.78;;
33403;SDS011;19751;40.274;18.268;2022-08-19T02:28:44;11.88;;;3.97;;
33403;SDS011;19751;40.274;18.268;2022-08-19T02:31:11;7.35;;;3.83;;
33403;SDS011;19751;40.274;18.268;2022-08-19T02:33:38;9.45;;;4.38;;
33403;SDS011;19751;40.274;18.268;2022-08-19T02:36:04;4.90;;;4.22;;
33403;SDS011;19751;40.274;18.268;2022-08-19T02:38:31;11.82;;;4.63;;
33403;SDS011;19751;40.274;18.268;2022-08-19T02:41:02;12.90;;;4.53;;
33403;SDS011;19751;40.274;18.268;2022-08-19T02:43:30;10.55;;;4.45;;
33403;SDS011;19751;40.274;18.268;2022-08-19T02:45:57;7.60;;;3.92;;
33403;SDS011;19751;40.274;18.268;2022-08-19T02:48:24;7.13;;;4.25;;
33403;SDS011;19751;40.274;18.268;2022-08-19T02:50:51;10.30;;;5.60;;
33403;SDS011;19751;40.274;18.268;2022-08-19T02:53:20;10.18;;;5.60;;
33403;SDS011;19751;40.274;18.268;2022-08-19T02:55:49;9.95;;;4.35;;
33403;SDS011;19751;40.274;18.268;2022-08-19T02:58:16;10.88;;;3.92;;
33403;SDS011;19751;40.274;18.268;2022-08-19T03:00:46;11.02;;;4.95;;
33403;SDS011;19751;40.274;18.268;2022-08-19T03:03:14;7.07;;;3.85;;
33403;SDS011;19751;40.274;18.268;2022-08-19T03:05:43;9.43;;;5.15;;
33403;SDS011;19751;40.274;18.268;2022-08-19T03:08:22;5.75;;;4.03;;
33403;SDS011;19751;40.274;18.268;2022-08-19T03:20:22;13.50;;;4.72;;
33403;SDS011;19751;40.274;18.268;2022-08-19T03:23:03;10.80;;;4.70;;
33403;SDS011;19751;40.274;18.268;2022-08-19T03:25:36;8.23;;;4.57;;
33403;SDS011;19751;40.274;18.268;2022-08-19T03:28:09;11.05;;;5.20;;
33403;SDS011;19751;40.274;18.268;2022-08-19T03:36:36;10.05;;;4.63;;
33403;SDS011;19751;40.274;18.268;2022-08-19T03:39:05;9.70;;;4.75;;
33403;SDS011;19751;40.274;18.268;2022-08-19T03:41:37;6.72;;;4.32;;
33403;SDS011;19751;40.274;18.268;2022-08-19T03:44:04;9.95;;;4.38;;
33403;SDS011;19751;40.274;18.268;2022-08-19T03:46:31;11.88;;;4.53;;
33403;SDS011;19751;40.274;18.268;2022-08-19T03:48:59;15.35;;;6.20;;
33403;SDS011;19751;40.274;18.268;2022-08-19T03:51:29;10.35;;;4.78;;
33403;SDS011;19751;40.274;18.268;2022-08-19T03:53:58;12.20;;;5.00;;
33403;SDS011;19751;40.274;18.268;2022-08-19T03:56:26;11.45;;;5.28;;
33403;SDS011;19751;40.274;18.268;2022-08-19T03:58:53;10.68;;;4.55;;
33403;SDS011;19751;40.274;18.268;2022-08-19T04:01:22;10.23;;;5.85;;
33403;SDS011;19751;40.274;18.268;2022-08-19T04:03:51;11.50;;;5.07;;
33403;SDS011;19751;40.274;18.268;2022-08-19T04:06:19;11.73;;;4.80;;
33403;SDS011;19751;40.274;18.268;2022-08-19T04:08:47;14.63;;;4.63;;
33403;SDS011;19751;40.274;18.268;2022-08-19T04:11:17;7.68;;;4.60;;
33403;SDS011;19751;40.274;18.268;2022-08-19T04:13:48;10.55;;;4.57;;
33403;SDS011;19751;40.274;18.268;2022-08-19T04:16:16;10.57;;;4.38;;
33403;SDS011;19751;40.274;18.268;2022-08-19T04:18:43;12.52;;;5.22;;
33403;SDS011;19751;40.274;18.268;2022-08-19T04:21:08;13.25;;;4.70;;
33403;SDS011;19751;40.274;18.268;2022-08-19T04:26:11;10.95;;;4.65;;
33403;SDS011;19751;40.274;18.268;2022-08-19T04:28:39;9.80;;;4.55;;
33403;SDS011;19751;40.274;18.268;2022-08-19T04:31:04;15.52;;;5.07;;
33403;SDS011;19751;40.274;18.268;2022-08-19T04:33:30;11.93;;;5.05;;
33403;SDS011;19751;40.274;18.268;2022-08-19T04:35:56;12.18;;;4.55;;
33403;SDS011;19751;40.274;18.268;2022-08-19T04:38:23;9.73;;;4.63;;
33403;SDS011;19751;40.274;18.268;2022-08-19T04:40:49;15.23;;;4.93;;
33403;SDS011;19751;40.274;18.268;2022-08-19T04:43:36;15.35;;;4.70;;
33403;SDS011;19751;40.274;18.268;2022-08-19T04:46:09;9.73;;;4.10;;
33403;SDS011;19751;40.274;18.268;2022-08-19T04:48:36;10.63;;;4.32;;
33403;SDS011;19751;40.274;18.268;2022-08-19T04:51:05;10.98;;;4.35;;
33403;SDS011;19751;40.274;18.268;2022-08-19T04:53:35;10.20;;;4.63;;
33403;SDS011;19751;40.274;18.268;2022-08-19T04:56:04;10.63;;;4.63;;
33403;SDS011;19751;40.274;18.268;2022-08-19T04:58:34;16.45;;;4.63;;
33403;SDS011;19751;40.274;18.268;2022-08-19T05:01:01;14.55;;;4.55;;
33403;SDS011;19751;40.274;18.268;2022-08-19T05:03:27;7.78;;;3.67;;
33403;SDS011;19751;40.274;18.268;2022-08-19T05:05:58;14.98;;;3.80;;
33403;SDS011;19751;40.274;18.268;2022-08-19T05:08:35;9.10;;;4.28;;
33403;SDS011;19751;40.274;18.268;2022-08-19T05:11:08;11.38;;;4.03;;
33403;SDS011;19751;40.274;18.268;2022-08-19T05:13:36;13.85;;;4.93;;
33403;SDS011;19751;40.274;18.268;2022-08-19T05:16:02;13.05;;;4.43;;
33403;SDS011;19751;40.274;18.268;2022-08-19T05:18:27;8.35;;;3.90;;
33403;SDS011;19751;40.274;18.268;2022-08-19T05:21:12;10.63;;;4.45;;
33403;SDS011;19751;40.274;18.268;2022-08-19T05:23:58;10.77;;;3.60;;
33403;SDS011;19751;40.274;18.268;2022-08-19T05:26:24;6.50;;;3.17;;
33403;SDS011;19751;40.274;18.268;2022-08-19T05:28:53;9.80;;;3.90;;
33403;SDS011;19751;40.274;18.268;2022-08-19T05:31:19;11.88;;;3.65;;
33403;SDS011;19751;40.274;18.268;2022-08-19T05:33:45;10.93;;;4.90;;
33403;SDS011;19751;40.274;18.268;2022-08-19T05:36:11;7.97;;;3.67;;
33403;SDS011;19751;40.274;18.268;2022-08-19T05:38:37;11.02;;;4.35;;
33403;SDS011;19751;40.274;18.268;2022-08-19T05:41:09;9.43;;;3.17;;
33403;SDS011;19751;40.274;18.268;2022-08-19T05:43:36;11.63;;;3.80;;
33403;SDS011;19751;40.274;18.268;2022-08-19T05:46:02;9.27;;;3.05;;
33403;SDS011;19751;40.274;18.268;2022-08-19T05:48:30;6.72;;;3.40;;
33403;SDS011;19751;40.274;18.268;2022-08-19T05:50:56;11.48;;;3.55;;
33403;SDS011;19751;40.274;18.268;2022-08-19T05:53:23;6.28;;;3.20;;
33403;SDS011;19751;40.274;18.268;2022-08-19T05:55:49;15.55;;;4.10;;
33403;SDS011;19751;40.274;18.268;2022-08-19T05:58:14;19.17;;;4.88;;
33403;SDS011;19751;40.274;18.268;2022-08-19T06:00:40;17.80;;;5.57;;
33403;SDS011;19751;40.274;18.268;2022-08-19T06:03:08;14.85;;;6.53;;
33403;SDS011;19751;40.274;18.268;2022-08-19T06:05:35;14.05;;;4.88;;
33403;SDS011;19751;40.274;18.268;2022-08-19T06:08:00;12.40;;;4.45;;
33403;SDS011;19751;40.274;18.268;2022-08-19T06:10:26;12.65;;;3.85;;
33403;SDS011;19751;40.274;18.268;2022-08-19T06:12:52;11.57;;;4.70;;
33403;SDS011;19751;40.274;18.268;2022-08-19T06:15:18;12.15;;;4.53;;
33403;SDS011;19751;40.274;18.268;2022-08-19T06:17:44;10.40;;;4.22;;
33403;SDS011;19751;40.274;18.268;2022-08-19T06:20:10;11.13;;;4.22;;
33403;SDS011;19751;40.274;18.268;2022-08-19T06:22:39;10.65;;;4.45;;
33403;SDS011;19751;40.274;18.268;2022-08-19T06:25:09;9.88;;;3.58;;
33403;SDS011;19751;40.274;18.268;2022-08-19T06:27:35;10.93;;;4.88;;
33403;SDS011;19751;40.274;18.268;2022-08-19T06:30:02;17.27;;;4.45;;
33403;SDS011;19751;40.274;18.268;2022-08-19T06:32:28;9.52;;;3.83;;
33403;SDS011;19751;40.274;18.268;2022-08-19T06:34:54;8.73;;;4.32;;
33403;SDS011;19751;40.274;18.268;2022-08-19T06:37:19;7.53;;;3.50;;
33403;SDS011;19751;40.274;18.268;2022-08-19T06:39:46;9.80;;;4.28;;
33403;SDS011;19751;40.274;18.268;2022-08-19T06:42:12;11.15;;;4.53;;
33403;SDS011;19751;40.274;18.268;2022-08-19T06:44:42;15.23;;;4.88;;
33403;SDS011;19751;40.274;18.268;2022-08-19T06:47:09;11.73;;;4.68;;
33403;SDS011;19751;40.274;18.268;2022-08-19T06:49:37;13.15;;;3.25;;
33403;SDS011;19751;40.274;18.268;2022-08-19T06:52:03;9.88;;;3.90;;
33403;SDS011;19751;40.274;18.268;2022-08-19T06:54:29;15.98;;;4.70;;
33403;SDS011;19751;40.274;18.268;2022-08-19T06:56:57;10.80;;;3.88;;
33403;SDS011;19751;40.274;18.268;2022-08-19T06:59:26;13.32;;;4.63;;
33403;SDS011;19751;40.274;18.268;2022-08-19T07:01:54;17.02;;;4.53;;
33403;SDS011;19751;40.274;18.268;2022-08-19T07:04:23;13.48;;;4.72;;
33403;SDS011;19751;40.274;18.268;2022-08-19T07:06:55;17.77;;;4.13;;
33403;SDS011;19751;40.274;18.268;2022-08-19T07:09:25;8.73;;;3.78;;
33403;SDS011;19751;40.274;18.268;2022-08-19T07:11:52;9.90;;;3.60;;
33403;SDS011;19751;40.274;18.268;2022-08-19T07:14:18;16.17;;;4.25;;
33403;SDS011;19751;40.274;18.268;2022-08-19T07:16:49;9.95;;;3.47;;
33403;SDS011;19751;40.274;18.268;2022-08-19T07:19:17;19.80;;;4.95;;
33403;SDS011;19751;40.274;18.268;2022-08-19T07:21:43;16.85;;;4.40;;
33403;SDS011;19751;40.274;18.268;2022-08-19T07:24:09;20.45;;;4.60;;
33403;SDS011;19751;40.274;18.268;2022-08-19T07:26:39;17.30;;;4.60;;
33403;SDS011;19751;40.274;18.268;2022-08-19T07:29:06;11.93;;;4.45;;
33403;SDS011;19751;40.274;18.268;2022-08-19T07:31:33;15.27;;;4.50;;
33403;SDS011;19751;40.274;18.268;2022-08-19T07:34:03;13.18;;;4.43;;
33403;SDS011;19751;40.274;18.268;2022-08-19T07:36:34;17.33;;;4.60;;
33403;SDS011;19751;40.274;18.268;2022-08-19T07:39:04;16.50;;;4.60;;
33403;SDS011;19751;40.274;18.268;2022-08-19T07:41:37;12.30;;;4.10;;
33403;SDS011;19751;40.274;18.268;2022-08-19T07:44:03;18.88;;;4.53;;
33403;SDS011;19751;40.274;18.268;2022-08-19T07:46:35;16.05;;;4.25;;
33403;SDS011;19751;40.274;18.268;2022-08-19T07:49:02;23.50;;;4.63;;
33403;SDS011;19751;40.274;18.268;2022-08-19T07:51:29;15.82;;;4.50;;
33403;SDS011;19751;40.274;18.268;2022-08-19T07:53:55;21.50;;;6.57;;
33403;SDS011;19751;40.274;18.268;2022-08-19T07:56:21;20.92;;;5.30;;
33403;SDS011;19751;40.274;18.268;2022-08-19T07:58:49;19.00;;;4.82;;
33403;SDS011;19751;40.274;18.268;2022-08-19T08:01:18;30.27;;;8.15;;
33403;SDS011;19751;40.274;18.268;2022-08-19T08:03:46;26.67;;;4.50;;
33403;SDS011;19751;40.274;18.268;2022-08-19T08:06:31;37.65;;;6.20;;
33403;SDS011;19751;40.274;18.268;2022-08-19T08:09:15;25.67;;;9.20;;
33403;SDS011;19751;40.274;18.268;2022-08-19T08:11:53;21.40;;;4.78;;
33403;SDS011;19751;40.274;18.268;2022-08-19T08:14:23;21.23;;;6.15;;
33403;SDS011;19751;40.274;18.268;2022-08-19T08:16:53;24.27;;;5.45;;
33403;SDS011;19751;40.274;18.268;2022-08-19T08:19:19;15.38;;;4.72;;
33403;SDS011;19751;40.274;18.268;2022-08-19T08:21:47;16.58;;;4.93;;
33403;SDS011;19751;40.274;18.268;2022-08-19T08:24:14;14.88;;;3.65;;
33403;SDS011;19751;40.274;18.268;2022-08-19T08:26:41;16.60;;;4.38;;
33403;SDS011;19751;40.274;18.268;2022-08-19T08:29:09;17.65;;;3.65;;
33403;SDS011;19751;40.274;18.268;2022-08-19T08:31:39;21.33;;;3.78;;
33403;SDS011;19751;40.274;18.268;2022-08-19T08:34:06;27.38;;;5.28;;
33403;SDS011;19751;40.274;18.268;2022-08-19T08:36:32;21.55;;;4.78;;
33403;SDS011;19751;40.274;18.268;2022-08-19T08:39:02;19.52;;;4.40;;
33403;SDS011;19751;40.274;18.268;2022-08-19T08:41:33;12.93;;;3.60;;
33403;SDS011;19751;40.274;18.268;2022-08-19T08:44:05;13.05;;;3.88;;
33403;SDS011;19751;40.274;18.268;2022-08-19T08:51:36;20.00;;;4.25;;
33403;SDS011;19751;40.274;18.268;2022-08-19T08:54:08;19.80;;;4.43;;
33403;SDS011;19751;40.274;18.268;2022-08-19T08:56:41;18.38;;;4.65;;
33403;SDS011;19751;40.274;18.268;2022-08-19T09:01:59;18.05;;;4.45;;
33403;SDS011;19751;40.274;18.268;2022-08-19T09:04:25;18.98;;;4.88;;
33403;SDS011;19751;40.274;18.268;2022-08-19T09:07:07;23.98;;;4.57;;
33403;SDS011;19751;40.274;18.268;2022-08-19T09:09:36;16.95;;;3.92;;
33403;SDS011;19751;40.274;18.268;2022-08-19T09:12:52;12.88;;;3.47;;
33403;SDS011;19751;40.274;18.268;2022-08-19T09:15:18;12.43;;;4.53;;
33403;SDS011;19751;40.274;18.268;2022-08-19T09:17:49;21.27;;;4.20;;
33403;SDS011;19751;40.274;18.268;2022-08-19T09:20:18;16.63;;;3.60;;
33403;SDS011;19751;40.274;18.268;2022-08-19T09:22:46;17.45;;;5.30;;
33403;SDS011;19751;40.274;18.268;2022-08-19T09:25:14;17.73;;;3.85;;
33403;SDS011;19751;40.274;18.268;2022-08-19T09:27:42;14.43;;;3.95;;
33403;SDS011;19751;40.274;18.268;2022-08-19T09:30:09;15.15;;;4.25;;
33403;SDS011;19751;40.274;18.268;2022-08-19T09:32:38;15.55;;;4.68;;
33403;SDS011;19751;40.274;18.268;2022-08-19T09:35:07;13.95;;;3.88;;
33403;SDS011;19751;40.274;18.268;2022-08-19T09:37:33;20.67;;;4.80;;
33403;SDS011;19751;40.274;18.268;2022-08-19T09:39:59;21.00;;;5.40;;
33403;SDS011;19751;40.274;18.268;2022-08-19T09:42:24;13.00;;;4.40;;
33403;SDS011;19751;40.274;18.268;2022-08-19T09:44:50;16.38;;;5.05;;
33403;SDS011;19751;40.274;18.268;2022-08-19T09:47:15;16.95;;;6.13;;
33403;SDS011;19751;40.274;18.268;2022-08-19T09:49:42;21.05;;;4.70;;
33403;SDS011;19751;40.274;18.268;2022-08-19T09:52:08;18.25;;;4.97;;
33403;SDS011;19751;40.274;18.268;2022-08-19T09:54:35;10.98;;;3.60;;
33403;SDS011;19751;40.274;18.268;2022-08-19T09:57:02;15.77;;;4.05;;
33403;SDS011;19751;40.274;18.268;2022-08-19T09:59:29;15.85;;;5.13;;
33403;SDS011;19751;40.274;18.268;2022-08-19T10:01:54;18.02;;;4.38;;
33403;SDS011;19751;40.274;18.268;2022-08-19T10:04:20;14.32;;;4.60;;
33403;SDS011;19751;40.274;18.268;2022-08-19T10:06:46;15.45;;;5.05;;
33403;SDS011;19751;40.274;18.268;2022-08-19T10:09:14;26.15;;;4.82;;
33403;SDS011;19751;40.274;18.268;2022-08-19T10:11:43;21.08;;;4.90;;
33403;SDS011;19751;40.274;18.268;2022-08-19T10:14:14;17.05;;;5.68;;
33403;SDS011;19751;40.274;18.268;2022-08-19T10:16:41;15.65;;;5.68;;
33403;SDS011;19751;40.274;18.268;2022-08-19T10:19:08;19.10;;;5.35;;
33403;SDS011;19751;40.274;18.268;2022-08-19T10:21:34;15.10;;;4.45;;
33403;SDS011;19751;40.274;18.268;2022-08-19T10:24:02;15.93;;;5.28;;
33403;SDS011;19751;40.274;18.268;2022-08-19T10:26:31;14.13;;;4.15;;
33403;SDS011;19751;40.274;18.268;2022-08-19T10:29:02;13.70;;;3.85;;
33403;SDS011;19751;40.274;18.268;2022-08-19T10:31:30;18.42;;;5.07;;
33403;SDS011;19751;40.274;18.268;2022-08-19T10:33:57;15.65;;;4.20;;
33403;SDS011;19751;40.274;18.268;2022-08-19T10:36:28;16.15;;;4.35;;
33403;SDS011;19751;40.274;18.268;2022-08-19T10:39:00;17.65;;;4.72;;
33403;SDS011;19751;40.274;18.268;2022-08-19T10:41:30;14.45;;;5.07;;
33403;SDS011;19751;40.274;18.268;2022-08-19T10:43:58;10.35;;;3.95;;
33403;SDS011;19751;40.274;18.268;2022-08-19T10:46:26;7.70;;;5.10;;
33403;SDS011;19751;40.274;18.268;2022-08-19T10:48:53;9.85;;;3.47;;
33403;SDS011;19751;40.274;18.268;2022-08-19T10:51:19;11.98;;;3.80;;
33403;SDS011;19751;40.274;18.268;2022-08-19T10:54:04;7.05;;;4.00;;
33403;SDS011;19751;40.274;18.268;2022-08-19T10:56:30;9.75;;;3.60;;
33403;SDS011;19751;40.274;18.268;2022-08-19T10:59:15;12.35;;;3.88;;
33403;SDS011;19751;40.274;18.268;2022-08-19T11:01:42;10.15;;;3.47;;
33403;SDS011;19751;40.274;18.268;2022-08-19T11:04:09;10.82;;;4.47;;
33403;SDS011;19751;40.274;18.268;2022-08-19T11:06:36;10.18;;;3.35;;
33403;SDS011;19751;40.274;18.268;2022-08-19T11:09:03;9.38;;;3.53;;
33403;SDS011;19751;40.274;18.268;2022-08-19T11:11:30;7.50;;;3.20;;
33403;SDS011;19751;40.274;18.268;2022-08-19T11:13:57;10.25;;;4.35;;
33403;SDS011;19751;40.274;18.268;2022-08-19T11:16:24;9.85;;;3.97;;
33403;SDS011;19751;40.274;18.268;2022-08-19T11:18:53;9.63;;;4.53;;
33403;SDS011;19751;40.274;18.268;2022-08-19T11:23:52;21.00;;;4.50;;
33403;SDS011;19751;40.274;18.268;2022-08-19T11:26:20;14.85;;;4.95;;
33403;SDS011;19751;40.274;18.268;2022-08-19T11:28:46;13.73;;;5.43;;
33403;SDS011;19751;40.274;18.268;2022-08-19T11:31:16;16.08;;;4.47;;
33403;SDS011;19751;40.274;18.268;2022-08-19T11:33:44;16.55;;;5.30;;
33403;SDS011;19751;40.274;18.268;2022-08-19T11:36:11;19.67;;;6.47;;
33403;SDS011;19751;40.274;18.268;2022-08-19T11:38:37;18.52;;;4.90;;
33403;SDS011;19751;40.274;18.268;2022-08-19T11:41:04;13.90;;;3.75;;
33403;SDS011;19751;40.274;18.268;2022-08-19T11:43:32;12.60;;;5.28;;
33403;SDS011;19751;40.274;18.268;2022-08-19T11:45:58;23.60;;;6.18;;
33403;SDS011;19751;40.274;18.268;2022-08-19T11:48:24;25.35;;;5.35;;
33403;SDS011;19751;40.274;18.268;2022-08-19T11:50:51;15.60;;;4.10;;
33403;SDS011;19751;40.274;18.268;2022-08-19T11:53:18;23.15;;;5.68;;
33403;SDS011;19751;40.274;18.268;2022-08-19T11:55:45;17.08;;;4.78;;
33403;SDS011;19751;40.274;18.268;2022-08-19T11:58:12;16.10;;;5.20;;
33403;SDS011;19751;40.274;18.268;2022-08-19T12:00:38;20.58;;;5.40;;
33403;SDS011;19751;40.274;18.268;2022-08-19T12:03:05;18.35;;;3.78;;
33403;SDS011;19751;40.274;18.268;2022-08-19T12:05:30;16.08;;;5.03;;
33403;SDS011;19751;40.274;18.268;2022-08-19T12:07:56;19.85;;;5.75;;
33403;SDS011;19751;40.274;18.268;2022-08-19T12:10:22;15.27;;;4.18;;
33403;SDS011;19751;40.274;18.268;2022-08-19T12:12:48;16.10;;;4.00;;
33403;SDS011;19751;40.274;18.268;2022-08-19T12:15:14;23.30;;;5.30;;
33403;SDS011;19751;40.274;18.268;2022-08-19T12:17:40;22.58;;;5.22;;
33403;SDS011;19751;40.274;18.268;2022-08-19T12:20:07;16.83;;;4.63;;
33403;SDS011;19751;40.274;18.268;2022-08-19T12:22:36;19.88;;;4.63;;
33403;SDS011;19751;40.274;18.268;2022-08-19T12:25:03;22.05;;;5.10;;
33403;SDS011;19751;40.274;18.268;2022-08-19T12:27:30;15.80;;;4.10;;
33403;SDS011;19751;40.274;18.268;2022-08-19T12:29:55;23.13;;;4.43;;
33403;SDS011;19751;40.274;18.268;2022-08-19T12:32:21;17.63;;;5.07;;
33403;SDS011;19751;40.274;18.268;2022-08-19T12:34:48;20.90;;;4.28;;
33403;SDS011;19751;40.274;18.268;2022-08-19T12:37:14;23.92;;;4.72;;
33403;SDS011;19751;40.274;18.268;2022-08-19T12:39:40;32.72;;;7.05;;
33403;SDS011;19751;40.274;18.268;2022-08-19T12:42:07;30.38;;;5.70;;
33403;SDS011;19751;40.274;18.268;2022-08-19T12:44:35;25.92;;;6.38;;
33403;SDS011;19751;40.274;18.268;2022-08-19T12:47:02;28.90;;;7.68;;
33403;SDS011;19751;40.274;18.268;2022-08-19T12:49:29;26.42;;;6.32;;
33403;SDS011;19751;40.274;18.268;2022-08-19T12:51:56;22.23;;;6.65;;
33403;SDS011;19751;40.274;18.268;2022-08-19T12:54:23;28.38;;;6.97;;
33403;SDS011;19751;40.274;18.268;2022-08-19T12:56:48;22.02;;;5.88;;
33403;SDS011;19751;40.274;18.268;2022-08-19T12:59:14;21.02;;;4.93;;
33403;SDS011;19751;40.274;18.268;2022-08-19T13:01:42;24.23;;;5.63;;
33403;SDS011;19751;40.274;18.268;2022-08-19T13:04:08;19.98;;;5.78;;
33403;SDS011;19751;40.274;18.268;2022-08-19T13:06:34;23.85;;;6.45;;
33403;SDS011;19751;40.274;18.268;2022-08-19T13:09:00;26.67;;;5.60;;
33403;SDS011;19751;40.274;18.268;2022-08-19T13:11:25;26.85;;;5.05;;
33403;SDS011;19751;40.274;18.268;2022-08-19T13:13:51;24.08;;;6.72;;
33403;SDS011;19751;40.274;18.268;2022-08-19T13:16:18;30.52;;;6.85;;
33403;SDS011;19751;40.274;18.268;2022-08-19T13:18:45;24.42;;;6.10;;
33403;SDS011;19751;40.274;18.268;2022-08-19T13:21:17;24.80;;;6.55;;
33403;SDS011;19751;40.274;18.268;2022-08-19T13:23:45;18.15;;;5.13;;
33403;SDS011;19751;40.274;18.268;2022-08-19T13:26:11;23.77;;;6.35;;
33403;SDS011;19751;40.274;18.268;2022-08-19T13:28:38;19.08;;;5.68;;
33403;SDS011;19751;40.274;18.268;2022-08-19T13:31:23;22.60;;;5.10;;
33403;SDS011;19751;40.274;18.268;2022-08-19T13:34:10;21.70;;;5.38;;
33403;SDS011;19751;40.274;18.268;2022-08-19T13:36:35;26.27;;;5.72;;
33403;SDS011;19751;40.274;18.268;2022-08-19T13:39:02;18.65;;;5.47;;
33403;SDS011;19751;40.274;18.268;2022-08-19T13:41:29;22.02;;;6.15;;
33403;SDS011;19751;40.274;18.268;2022-08-19T13:43:55;21.77;;;5.60;;
33403;SDS011;19751;40.274;18.268;2022-08-19T13:46:20;18.40;;;5.85;;
33403;SDS011;19751;40.274;18.268;2022-08-19T13:48:46;15.45;;;5.72;;
33403;SDS011;19751;40.274;18.268;2022-08-19T13:51:15;26.60;;;7.32;;
33403;SDS011;19751;40.274;18.268;2022-08-19T13:53:42;22.08;;;6.45;;
33403;SDS011;19751;40.274;18.268;2022-08-19T13:56:09;13.93;;;5.95;;
33403;SDS011;19751;40.274;18.268;2022-08-19T13:58:37;30.50;;;7.72;;
33403;SDS011;19751;40.274;18.268;2022-08-19T14:01:04;17.50;;;5.53;;
33403;SDS011;19751;40.274;18.268;2022-08-19T14:03:30;17.95;;;6.25;;
33403;SDS011;19751;40.274;18.268;2022-08-19T14:05:57;22.55;;;6.45;;
33403;SDS011;19751;40.274;18.268;2022-08-19T14:08:23;17.85;;;6.03;;
33403;SDS011;19751;40.274;18.268;2022-08-19T14:10:49;24.38;;;5.90;;
33403;SDS011;19751;40.274;18.268;2022-08-19T14:13:17;24.90;;;5.90;;
33403;SDS011;19751;40.274;18.268;2022-08-19T14:15:45;20.05;;;5.40;;
33403;SDS011;19751;40.274;18.268;2022-08-19T14:18:12;23.67;;;5.57;;
33403;SDS011;19751;40.274;18.268;2022-08-19T14:20:39;19.45;;;5.30;;
33403;SDS011;19751;40.274;18.268;2022-08-19T14:23:04;25.98;;;5.68;;
33403;SDS011;19751;40.274;18.268;2022-08-19T14:25:31;17.77;;;5.47;;
33403;SDS011;19751;40.274;18.268;2022-08-19T14:28:01;17.50;;;4.95;;
33403;SDS011;19751;40.274;18.268;2022-08-19T14:30:30;22.50;;;8.25;;
33403;SDS011;19751;40.274;18.268;2022-08-19T14:32:58;33.08;;;7.88;;
33403;SDS011;19751;40.274;18.268;2022-08-19T14:35:26;28.15;;;7.70;;
33403;SDS011;19751;40.274;18.268;2022-08-19T14:37:53;27.40;;;8.75;;
33403;SDS011;19751;40.274;18.268;2022-08-19T14:40:20;21.67;;;6.00;;
33403;SDS011;19751;40.274;18.268;2022-08-19T14:42:51;17.23;;;5.50;;
33403;SDS011;19751;40.274;18.268;2022-08-19T14:45:24;13.73;;;6.00;;
33403;SDS011;19751;40.274;18.268;2022-08-19T14:47:51;31.90;;;8.40;;
33403;SDS011;19751;40.274;18.268;2022-08-19T14:50:17;25.23;;;7.90;;
33403;SDS011;19751;40.274;18.268;2022-08-19T14:52:42;13.65;;;6.22;;
33403;SDS011;19751;40.274;18.268;2022-08-19T14:55:08;14.80;;;5.88;;
33403;SDS011;19751;40.274;18.268;2022-08-19T14:57:34;21.25;;;6.28;;
33403;SDS011;19751;40.274;18.268;2022-08-19T14:59:59;13.85;;;6.30;;